createdAt,value
2019-02-24T00:02:01.967Z,3.43
2019-02-24T00:04:52.386Z,2.90
2019-02-24T00:07:42.607Z,3.17
2019-02-24T00:10:33.271Z,3.00
2019-02-24T00:13:23.682Z,2.60
2019-02-24T00:16:14.216Z,2.80
2019-02-24T00:19:04.524Z,2.50
2019-02-24T00:21:54.664Z,3.00
2019-02-24T00:24:44.954Z,3.10
2019-02-24T00:27:35.355Z,2.80
2019-02-24T00:30:25.610Z,3.30
2019-02-24T00:33:16.461Z,3.03
2019-02-24T00:36:06.842Z,3.03
2019-02-24T00:38:57.282Z,3.00
2019-02-24T00:41:47.790Z,3.00
2019-02-24T00:44:38.194Z,3.03
2019-02-24T00:47:28.576Z,2.90
2019-02-24T00:50:18.903Z,4.03
2019-02-24T00:53:09.270Z,3.33
2019-02-24T00:55:59.680Z,3.23
2019-02-24T00:58:50.020Z,3.27
2019-02-24T01:01:40.369Z,2.93
2019-02-24T01:04:30.764Z,2.70
2019-02-24T01:07:21.207Z,3.40
2019-02-24T01:10:11.767Z,3.47
2019-02-24T01:13:02.575Z,3.20
2019-02-24T01:15:53.474Z,3.13
2019-02-24T01:18:44.391Z,3.10
2019-02-24T01:21:34.332Z,3.10
2019-02-24T01:24:24.679Z,3.07
2019-02-24T01:27:15.124Z,3.10
2019-02-24T01:30:06.255Z,3.03
2019-02-24T01:32:56.546Z,2.97
2019-02-24T01:35:46.829Z,2.80
2019-02-24T01:38:37.127Z,3.10
2019-02-24T01:41:27.548Z,2.83
2019-02-24T01:44:17.986Z,3.13
2019-02-24T01:47:08.413Z,3.27
2019-02-24T01:49:58.543Z,2.97
2019-02-24T01:52:48.599Z,3.13
2019-02-24T01:55:38.933Z,2.83
2019-02-24T01:58:35.117Z,2.80
2019-02-24T02:01:20.902Z,2.37
2019-02-24T02:04:11.099Z,3.07
2019-02-24T02:07:01.547Z,2.67
2019-02-24T02:09:51.715Z,3.10
2019-02-24T02:12:42.209Z,2.97
2019-02-24T02:15:32.537Z,2.70
2019-02-24T02:18:23.725Z,2.50
2019-02-24T02:21:14.412Z,2.90
2019-02-24T02:24:04.787Z,2.80
2019-02-24T02:26:55.619Z,3.03
2019-02-24T02:29:45.967Z,3.10
2019-02-24T02:32:36.487Z,2.80
2019-02-24T02:35:26.833Z,2.90
2019-02-24T02:38:19.626Z,2.97
2019-02-24T02:41:10.150Z,2.70
2019-02-24T02:44:00.642Z,2.60
2019-02-24T02:46:51.011Z,2.50
2019-02-24T02:49:41.499Z,2.90
2019-02-24T02:52:34.360Z,2.80
2019-02-24T02:55:24.537Z,2.60
2019-02-24T02:58:14.973Z,2.60
2019-02-24T03:01:08.275Z,2.83
2019-02-24T03:03:59.581Z,3.13
2019-02-24T03:07:14.807Z,2.50
2019-02-24T03:10:05.319Z,2.60
2019-02-24T03:12:56.780Z,2.60
2019-02-24T03:15:48.156Z,2.50
2019-02-24T03:18:38.125Z,2.47
2019-02-24T03:21:28.371Z,2.50
2019-02-24T03:24:18.556Z,2.50
2019-02-24T03:27:09.132Z,2.80
2019-02-24T03:29:59.588Z,2.70
2019-02-24T03:32:51.573Z,2.77
2019-02-24T03:35:41.663Z,2.57
2019-02-24T03:38:34.721Z,2.60
2019-02-24T03:41:25.290Z,2.50
2019-02-24T03:44:15.501Z,2.53
2019-02-24T03:47:05.696Z,2.83
2019-02-24T03:49:55.932Z,2.73
2019-02-24T03:52:46.313Z,2.87
2019-02-24T03:55:39.214Z,2.73
2019-02-24T03:58:29.348Z,2.53
2019-02-24T04:01:19.728Z,2.90
2019-02-24T04:04:10.362Z,2.60
2019-02-24T04:07:00.845Z,2.37
2019-02-24T04:09:51.453Z,2.37
2019-02-24T04:12:42.167Z,2.53
2019-02-24T04:15:32.549Z,2.73
2019-02-24T04:18:22.801Z,3.17
2019-02-24T04:21:13.032Z,2.50
2019-02-24T04:24:03.389Z,2.70
2019-02-24T04:26:58.144Z,2.63
2019-02-24T04:29:49.658Z,2.60
2019-02-24T04:32:39.739Z,2.67
2019-02-24T04:35:30.373Z,2.60
2019-02-24T04:38:20.761Z,2.60
2019-02-24T04:41:11.015Z,2.50
2019-02-24T04:44:01.364Z,2.70
2019-02-24T04:46:51.533Z,3.10
2019-02-24T04:49:42.689Z,2.70
2019-02-24T04:52:33.253Z,2.73
2019-02-24T04:55:23.391Z,2.80
2019-02-24T04:58:16.297Z,2.77
2019-02-24T05:01:06.703Z,2.77
2019-02-24T05:03:56.929Z,2.57
2019-02-24T05:06:47.247Z,2.70
2019-02-24T05:09:37.652Z,2.57
2019-02-24T05:12:28.031Z,2.83
2019-02-24T05:15:18.465Z,2.40
2019-02-24T05:18:10.047Z,2.50
2019-02-24T05:21:00.161Z,2.47
2019-02-24T05:23:50.488Z,2.70
2019-02-24T05:26:45.240Z,2.73
2019-02-24T05:29:44.800Z,2.97
2019-02-24T05:32:28.303Z,2.57
2019-02-24T05:35:21.106Z,2.70
2019-02-24T05:38:11.265Z,2.73
2019-02-24T05:41:01.581Z,2.60
2019-02-24T05:43:52.132Z,2.80
2019-02-24T05:46:45.244Z,2.50
2019-02-24T05:49:35.874Z,2.40
2019-02-24T05:52:26.234Z,2.30
2019-02-24T05:55:16.526Z,2.40
2019-02-24T05:58:09.674Z,2.40
2019-02-24T06:00:59.738Z,2.57
2019-02-24T06:03:50.161Z,2.60
2019-02-24T06:06:40.472Z,2.13
2019-02-24T06:09:30.863Z,2.33
2019-02-24T06:12:21.219Z,2.60
2019-02-24T06:15:14.619Z,2.23
2019-02-24T06:18:04.905Z,2.60
2019-02-24T06:20:55.092Z,2.20
2019-02-24T06:23:45.518Z,2.37
2019-02-24T06:26:35.902Z,2.37
2019-02-24T06:29:26.908Z,2.47
2019-02-24T06:32:17.627Z,2.20
2019-02-24T06:35:08.201Z,2.40
2019-02-24T06:37:58.387Z,2.13
2019-02-24T06:40:48.603Z,2.10
2019-02-24T06:43:39.102Z,2.20
2019-02-24T06:46:29.427Z,2.37
2019-02-24T06:49:19.835Z,2.80
2019-02-24T06:52:10.132Z,2.50
2019-02-24T06:55:01.442Z,2.60
2019-02-24T06:57:51.772Z,2.27
2019-02-24T07:00:42.133Z,2.60
2019-02-24T07:03:32.597Z,2.20
2019-02-24T07:06:24.247Z,2.43
2019-02-24T07:09:14.740Z,2.43
2019-02-24T07:12:05.040Z,2.30
2019-02-24T07:14:55.324Z,2.40
2019-02-24T07:17:47.168Z,2.30
2019-02-24T07:20:37.587Z,2.70
2019-02-24T07:23:28.309Z,2.07
2019-02-24T07:26:18.439Z,2.37
2019-02-24T07:29:08.553Z,2.20
2019-02-24T07:31:58.923Z,2.20
2019-02-24T07:34:51.901Z,2.20
2019-02-24T07:37:44.165Z,2.07
2019-02-24T07:40:35.246Z,2.33
2019-02-24T07:43:25.668Z,2.20
2019-02-24T07:46:15.860Z,2.00
2019-02-24T07:49:06.452Z,2.40
2019-02-24T07:51:57.733Z,2.00
2019-02-24T07:54:47.864Z,2.10
2019-02-24T07:57:37.905Z,3.03
2019-02-24T08:00:32.325Z,2.10
2019-02-24T08:03:20.264Z,2.03
2019-02-24T08:06:10.550Z,2.33
2019-02-24T08:09:00.847Z,2.37
2019-02-24T08:11:52.281Z,2.40
2019-02-24T08:14:42.770Z,2.20
2019-02-24T08:17:33.262Z,2.53
2019-02-24T08:20:23.756Z,1.97
2019-02-24T08:23:14.230Z,2.20
2019-02-24T08:26:04.905Z,2.30
2019-02-24T08:28:57.749Z,2.10
2019-02-24T08:31:48.402Z,2.17
2019-02-24T08:34:38.478Z,2.20
2019-02-24T08:37:28.735Z,2.57
2019-02-24T08:40:19.068Z,2.10
2019-02-24T08:43:09.764Z,2.03
2019-02-24T08:46:00.103Z,2.43
2019-02-24T08:48:50.551Z,2.03
2019-02-24T08:51:44.134Z,2.00
2019-02-24T08:54:34.610Z,2.30
2019-02-24T08:57:25.000Z,2.20
2019-02-24T09:00:15.527Z,2.10
2019-02-24T09:03:05.877Z,2.20
2019-02-24T09:05:56.798Z,2.07
2019-02-24T09:08:47.319Z,2.27
2019-02-24T09:11:42.424Z,1.90
2019-02-24T09:14:32.715Z,2.50
2019-02-24T09:17:23.286Z,2.30
2019-02-24T09:20:13.656Z,1.90
2019-02-24T09:23:04.597Z,2.63
2019-02-24T09:25:55.069Z,2.33
2019-02-24T09:28:45.805Z,2.70
2019-02-24T09:31:36.049Z,2.70
2019-02-24T09:34:26.509Z,2.80
2019-02-24T09:37:17.876Z,2.47
2019-02-24T09:40:09.702Z,2.50
2019-02-24T09:43:00.009Z,2.70
2019-02-24T09:45:50.439Z,2.93
2019-02-24T09:48:40.849Z,2.50
2019-02-24T09:51:32.902Z,2.90
2019-02-24T09:54:23.673Z,3.17
2019-02-24T09:57:13.939Z,3.07
2019-02-24T10:00:04.497Z,2.90
2019-02-24T10:02:55.100Z,3.17
2019-02-24T10:05:46.564Z,2.60
2019-02-24T10:08:36.629Z,2.87
2019-02-24T10:11:26.948Z,2.47
2019-02-24T10:14:17.931Z,2.60
2019-02-24T10:17:07.996Z,2.70
2019-02-24T10:19:58.445Z,2.70
2019-02-24T10:22:48.698Z,2.80
2019-02-24T10:25:39.226Z,2.90
2019-02-24T10:28:29.621Z,2.87
2019-02-24T10:31:20.376Z,2.90
2019-02-24T10:34:10.704Z,2.70
2019-02-24T10:37:01.052Z,4.63
2019-02-24T10:39:51.424Z,5.90
2019-02-24T10:42:41.719Z,3.50
2019-02-24T10:45:31.978Z,3.40
2019-02-24T10:48:22.379Z,3.60
2019-02-24T10:51:12.611Z,3.40
2019-02-24T10:54:03.160Z,3.23
2019-02-24T10:56:53.554Z,3.60
2019-02-24T10:59:44.141Z,3.40
2019-02-24T11:02:34.596Z,4.93
2019-02-24T11:05:25.226Z,3.50
2019-02-24T11:08:15.543Z,3.20
2019-02-24T11:11:05.883Z,3.30
2019-02-24T11:13:56.279Z,3.27
2019-02-24T11:16:49.211Z,3.63
2019-02-24T11:19:39.476Z,3.10
2019-02-24T11:22:29.853Z,3.50
2019-02-24T11:25:20.153Z,3.10
2019-02-24T11:28:10.908Z,2.97
2019-02-24T11:31:02.785Z,3.30
2019-02-24T11:33:53.222Z,3.77
2019-02-24T11:36:44.312Z,3.70
2019-02-24T11:39:35.227Z,4.40
2019-02-24T11:42:25.547Z,3.77
2019-02-24T11:45:17.103Z,3.40
2019-02-24T11:48:07.467Z,3.40
2019-02-24T11:50:58.900Z,3.60
2019-02-24T11:53:49.393Z,3.40
2019-02-24T11:56:39.894Z,3.63
2019-02-24T11:59:30.206Z,3.83
2019-02-24T12:02:20.517Z,3.70
2019-02-24T12:05:10.678Z,3.60
2019-02-24T12:08:01.786Z,3.60
2019-02-24T12:10:51.789Z,3.33
2019-02-24T12:13:42.383Z,4.20
2019-02-24T12:16:32.888Z,3.30
2019-02-24T12:19:23.466Z,3.57
2019-02-24T12:22:13.709Z,3.90
2019-02-24T12:25:03.994Z,3.83
2019-02-24T12:27:54.107Z,3.70
2019-02-24T12:30:44.657Z,3.30
2019-02-24T12:33:34.998Z,3.50
2019-02-24T12:36:25.540Z,3.43
2019-02-24T12:39:15.881Z,3.40
2019-02-24T12:42:06.250Z,3.43
2019-02-24T12:44:56.667Z,3.73
2019-02-24T12:47:47.208Z,3.17
2019-02-24T12:50:38.466Z,2.97
2019-02-24T12:53:28.947Z,3.20
2019-02-24T12:56:18.924Z,4.07
2019-02-24T12:59:09.413Z,4.77
2019-02-24T13:02:05.452Z,3.67
2019-02-24T13:04:51.909Z,4.20
2019-02-24T13:07:42.167Z,4.00
2019-02-24T13:10:32.612Z,3.53
2019-02-24T13:13:22.774Z,3.67
2019-02-24T13:16:13.210Z,3.33
2019-02-24T13:19:03.317Z,3.77
2019-02-24T13:21:54.039Z,3.90
2019-02-24T13:24:44.483Z,4.43
2019-02-24T13:27:37.373Z,3.93
2019-02-24T13:30:27.812Z,4.00
2019-02-24T13:33:17.974Z,4.00
2019-02-24T13:36:08.294Z,3.47
2019-02-24T13:39:00.780Z,3.83
2019-02-24T13:41:53.004Z,4.03
2019-02-24T13:44:43.278Z,4.60
2019-02-24T13:47:33.529Z,3.33
2019-02-24T13:50:24.021Z,3.93
2019-02-24T13:53:14.071Z,4.40
2019-02-24T13:56:04.495Z,4.50
2019-02-24T13:58:54.890Z,3.40
2019-02-24T14:01:45.475Z,3.83
2019-02-24T14:04:35.786Z,4.57
2019-02-24T14:07:26.235Z,4.53
2019-02-24T14:10:16.730Z,3.60
2019-02-24T14:13:07.612Z,5.60
2019-02-24T14:15:58.023Z,4.47
2019-02-24T14:18:49.973Z,4.57
2019-02-24T14:21:40.490Z,5.07
2019-02-24T14:24:30.945Z,5.40
2019-02-24T14:27:21.299Z,4.20
2019-02-24T14:30:13.067Z,3.90
2019-02-24T14:33:03.462Z,4.20
2019-02-24T14:35:53.950Z,3.70
2019-02-24T14:38:44.675Z,3.67
2019-02-24T14:41:35.245Z,4.43
2019-02-24T14:44:25.669Z,3.60
2019-02-24T14:47:16.036Z,4.90
2019-02-24T14:50:06.484Z,4.33
2019-02-24T14:52:56.728Z,4.07
2019-02-24T14:55:46.742Z,4.13
2019-02-24T14:58:36.978Z,5.23
2019-02-24T15:01:26.920Z,4.10
2019-02-24T15:04:17.465Z,4.30
2019-02-24T15:07:08.149Z,4.60
2019-02-24T15:09:58.665Z,3.93
2019-02-24T15:12:49.054Z,3.60
2019-02-24T15:15:40.616Z,4.67
2019-02-24T15:18:30.875Z,4.10
2019-02-24T15:21:21.214Z,3.60
2019-02-24T15:24:11.458Z,4.03
2019-02-24T15:27:01.913Z,5.83
2019-02-24T15:29:52.226Z,5.07
2019-02-24T15:32:51.139Z,4.70
2019-02-24T15:35:34.882Z,5.60
2019-02-24T15:38:25.456Z,3.83
2019-02-24T15:41:15.864Z,3.67
2019-02-24T15:44:06.383Z,3.77
2019-02-24T15:46:56.950Z,4.00
2019-02-24T15:49:48.546Z,4.07
2019-02-24T15:52:38.913Z,4.20
2019-02-24T15:55:29.265Z,4.40
2019-02-24T15:58:19.504Z,4.33
2019-02-24T16:01:09.796Z,3.97
2019-02-24T16:04:00.161Z,3.17
2019-02-24T16:06:50.352Z,3.47
2019-02-24T16:09:40.743Z,4.03
2019-02-24T16:12:32.323Z,4.30
2019-02-24T16:15:22.453Z,4.30
2019-02-24T16:18:12.841Z,6.43
2019-02-24T16:21:03.335Z,7.53
2019-02-24T16:23:53.944Z,8.47
2019-02-24T16:26:44.240Z,5.13
2019-02-24T16:29:34.619Z,4.23
2019-02-24T16:32:24.666Z,4.73
2019-02-24T16:35:15.106Z,4.00
2019-02-24T16:38:05.444Z,5.20
2019-02-24T16:40:55.985Z,4.30
2019-02-24T16:43:46.204Z,4.80
2019-02-24T16:46:37.622Z,4.27
2019-02-24T16:49:28.025Z,4.23
2019-02-24T16:52:18.560Z,4.30
2019-02-24T16:55:10.014Z,3.80
2019-02-24T16:58:00.464Z,3.93
2019-02-24T17:00:50.804Z,4.13
2019-02-24T17:03:41.570Z,3.50
2019-02-24T17:06:31.861Z,4.37
2019-02-24T17:09:22.897Z,3.90
2019-02-24T17:12:14.038Z,3.87
2019-02-24T17:15:04.596Z,4.23
2019-02-24T17:17:55.112Z,4.00
2019-02-24T17:20:45.415Z,3.80
2019-02-24T17:23:35.763Z,4.00
2019-02-24T17:26:26.253Z,4.20
2019-02-24T17:29:17.117Z,4.03
2019-02-24T17:32:08.638Z,4.27
2019-02-24T17:34:59.304Z,3.87
2019-02-24T17:37:49.714Z,3.93
2019-02-24T17:40:42.363Z,3.90
2019-02-24T17:43:32.450Z,4.10
2019-02-24T17:46:22.669Z,4.00
2019-02-24T17:49:13.084Z,4.10
2019-02-24T17:52:03.333Z,3.93
2019-02-24T17:54:55.114Z,4.17
2019-02-24T17:57:45.235Z,3.87
2019-02-24T18:00:37.248Z,3.93
2019-02-24T18:03:27.394Z,3.93
2019-02-24T18:06:17.737Z,3.83
2019-02-24T18:09:08.167Z,4.23
2019-02-24T18:11:58.896Z,3.47
2019-02-24T18:14:49.224Z,4.17
2019-02-24T18:17:39.593Z,4.60
2019-02-24T18:20:29.705Z,3.57
2019-02-24T18:23:20.250Z,3.43
2019-02-24T18:26:10.469Z,4.20
2019-02-24T18:29:00.555Z,4.30
2019-02-24T18:31:51.879Z,3.37
2019-02-24T18:34:42.263Z,4.33
2019-02-24T18:37:32.635Z,4.67
2019-02-24T18:40:23.304Z,4.00
2019-02-24T18:43:13.696Z,3.40
2019-02-24T18:46:03.930Z,3.80
2019-02-24T18:48:54.158Z,4.20
2019-02-24T18:51:44.608Z,3.83
2019-02-24T18:54:35.167Z,3.70
2019-02-24T18:57:25.592Z,4.00
2019-02-24T19:00:16.169Z,2.93
2019-02-24T19:03:07.065Z,3.10
2019-02-24T19:05:57.330Z,3.77
2019-02-24T19:08:47.752Z,3.70
2019-02-24T19:11:39.844Z,3.50
2019-02-24T19:14:30.453Z,4.03
2019-02-24T19:17:21.361Z,3.30
2019-02-24T19:20:12.793Z,3.00
2019-02-24T19:23:03.236Z,3.20
2019-02-24T19:25:53.500Z,3.33
2019-02-24T19:28:46.236Z,3.40
2019-02-24T19:31:37.638Z,2.53
2019-02-24T19:34:27.799Z,2.20
2019-02-24T19:37:18.244Z,2.33
2019-02-24T19:40:12.044Z,2.60
2019-02-24T19:43:02.493Z,2.63
2019-02-24T19:45:52.793Z,2.30
2019-02-24T19:48:43.213Z,2.10
2019-02-24T19:51:34.164Z,2.33
2019-02-24T19:54:24.911Z,2.60
2019-02-24T19:57:15.148Z,2.27
2019-02-24T20:00:07.133Z,2.30
2019-02-24T20:03:00.367Z,2.47
2019-02-24T20:05:50.756Z,4.03
2019-02-24T20:08:41.069Z,2.60
2019-02-24T20:11:31.879Z,2.40
2019-02-24T20:14:22.315Z,2.40
2019-02-24T20:17:12.908Z,2.40
2019-02-24T20:20:05.347Z,2.70
2019-02-24T20:22:55.743Z,2.97
2019-02-24T20:25:48.038Z,2.60
2019-02-24T20:28:40.044Z,2.70
2019-02-24T20:31:31.111Z,2.80
2019-02-24T20:34:25.444Z,2.50
2019-02-24T20:37:15.634Z,2.50
2019-02-24T20:40:07.050Z,2.70
2019-02-24T20:42:57.328Z,3.23
2019-02-24T20:45:47.645Z,3.77
2019-02-24T20:48:38.260Z,2.90
2019-02-24T20:51:29.674Z,3.00
2019-02-24T20:54:19.938Z,3.57
2019-02-24T20:57:10.662Z,2.87
2019-02-24T21:00:00.918Z,2.97
2019-02-24T21:02:51.504Z,3.10
2019-02-24T21:05:42.694Z,2.80
2019-02-24T21:08:33.477Z,2.90
2019-02-24T21:11:23.860Z,3.10
2019-02-24T21:14:14.772Z,2.90
2019-02-24T21:17:05.108Z,3.10
2019-02-24T21:19:55.540Z,3.23
2019-02-24T21:22:45.797Z,3.27
2019-02-24T21:25:36.149Z,3.27
2019-02-24T21:28:27.447Z,3.40
2019-02-24T21:31:17.865Z,3.60
2019-02-24T21:34:08.139Z,3.40
2019-02-24T21:36:58.627Z,3.90
2019-02-24T21:39:49.146Z,3.57
2019-02-24T21:42:39.537Z,4.10
2019-02-24T21:45:29.930Z,4.13
2019-02-24T21:48:20.205Z,4.23
2019-02-24T21:51:10.491Z,4.00
2019-02-24T21:54:01.330Z,3.90
2019-02-24T21:56:51.609Z,3.70
2019-02-24T21:59:41.994Z,4.13
2019-02-24T22:02:32.390Z,4.27
2019-02-24T22:05:23.019Z,3.80
2019-02-24T22:08:13.020Z,3.63
2019-02-24T22:11:03.590Z,3.43
2019-02-24T22:13:54.165Z,3.53
2019-02-24T22:16:45.721Z,3.73
2019-02-24T22:19:35.962Z,3.20
2019-02-24T22:22:28.365Z,3.57
2019-02-24T22:25:18.636Z,3.77
2019-02-24T22:28:09.074Z,2.90
2019-02-24T22:30:59.566Z,3.00
2019-02-24T22:33:50.021Z,3.83
2019-02-24T22:36:40.291Z,3.87
2019-02-24T22:39:30.737Z,4.00
2019-02-24T22:42:21.276Z,4.10
2019-02-24T22:45:13.420Z,4.20
2019-02-24T22:48:03.932Z,4.00
2019-02-24T22:50:55.339Z,4.00
2019-02-24T22:53:46.144Z,4.33
2019-02-24T22:56:36.575Z,4.70
2019-02-24T22:59:26.678Z,4.40
2019-02-24T23:02:18.039Z,4.40
2019-02-24T23:05:08.323Z,3.90
2019-02-24T23:08:00.642Z,4.67
2019-02-24T23:10:53.511Z,4.97
2019-02-24T23:13:44.652Z,4.00
2019-02-24T23:16:34.900Z,4.43
2019-02-24T23:19:25.229Z,4.30
2019-02-24T23:22:15.220Z,4.37
2019-02-24T23:25:06.003Z,4.10
2019-02-24T23:27:57.277Z,4.17
2019-02-24T23:30:48.493Z,4.63
2019-02-24T23:33:38.730Z,4.40
2019-02-24T23:36:29.279Z,4.40
2019-02-24T23:39:19.824Z,4.23
2019-02-24T23:42:10.294Z,4.50
2019-02-24T23:45:10.030Z,4.67
2019-02-24T23:47:54.729Z,4.80
2019-02-24T23:50:45.139Z,4.60
2019-02-24T23:53:35.523Z,4.80
2019-02-24T23:56:25.514Z,4.87
2019-02-24T23:59:16.131Z,4.53
